createdAt,value
2019-06-19T00:01:03.007Z,20.40
2019-06-19T00:02:07.665Z,20.50
2019-06-19T00:03:13.264Z,20.50
2019-06-19T00:04:17.750Z,20.40
2019-06-19T00:05:23.134Z,20.40
2019-06-19T00:06:27.532Z,20.30
2019-06-19T00:07:32.555Z,20.30
2019-06-19T00:08:37.099Z,20.30
2019-06-19T00:09:42.247Z,20.20
2019-06-19T00:10:46.641Z,20.20
2019-06-19T00:11:52.839Z,20.20
2019-06-19T00:12:57.523Z,20.20
2019-06-19T00:14:02.831Z,20.20
2019-06-19T00:15:07.251Z,20.20
2019-06-19T00:16:12.584Z,20.30
2019-06-19T00:17:16.907Z,20.50
2019-06-19T00:18:57.437Z,20.60
2019-06-19T00:20:05.076Z,20.70
2019-06-19T00:21:12.197Z,20.60
2019-06-19T00:22:20.036Z,20.50
2019-06-19T00:23:28.732Z,20.50
2019-06-19T00:25:06.889Z,20.60
2019-06-19T00:26:14.250Z,20.50
2019-06-19T00:27:19.289Z,20.50
2019-06-19T00:28:29.456Z,20.30
2019-06-19T00:29:39.643Z,20.30
2019-06-19T00:30:36.528Z,20.10
2019-06-19T00:31:41.690Z,20.10
2019-06-19T00:32:46.110Z,20.00
2019-06-19T00:33:51.774Z,19.90
2019-06-19T00:34:56.338Z,19.80
2019-06-19T00:36:01.406Z,19.80
2019-06-19T00:37:05.766Z,19.80
2019-06-19T00:38:10.893Z,19.70
2019-06-19T00:39:15.487Z,19.60
2019-06-19T00:40:22.171Z,19.60
2019-06-19T00:41:26.585Z,19.60
2019-06-19T00:42:31.576Z,19.60
2019-06-19T00:43:35.939Z,19.50
2019-06-19T00:44:40.917Z,19.50
2019-06-19T00:45:45.553Z,19.50
2019-06-19T00:46:51.472Z,19.50
2019-06-19T00:47:56.105Z,19.40
2019-06-19T00:49:01.217Z,19.40
2019-06-19T00:50:06.186Z,19.50
2019-06-19T00:51:11.795Z,19.50
2019-06-19T00:52:16.269Z,19.50
2019-06-19T00:53:21.619Z,19.60
2019-06-19T00:54:27.916Z,19.60
2019-06-19T00:55:54.083Z,19.60
2019-06-19T00:57:01.451Z,19.60
2019-06-19T00:58:06.847Z,19.60
2019-06-19T00:59:11.280Z,19.50
2019-06-19T01:00:17.365Z,19.50
2019-06-19T01:01:22.129Z,19.70
2019-06-19T01:02:27.168Z,19.90
2019-06-19T01:03:31.556Z,20.10
2019-06-19T01:04:36.518Z,20.30
2019-06-19T01:05:41.776Z,20.50
2019-06-19T01:06:46.761Z,20.40
2019-06-19T01:07:51.620Z,20.30
2019-06-19T01:08:56.748Z,20.30
2019-06-19T01:10:01.159Z,20.10
2019-06-19T01:11:06.127Z,19.90
2019-06-19T01:12:11.199Z,19.80
2019-06-19T01:13:16.272Z,19.70
2019-06-19T01:14:21.240Z,19.50
2019-06-19T01:15:26.705Z,19.40
2019-06-19T01:16:31.804Z,19.30
2019-06-19T01:17:36.912Z,19.40
2019-06-19T01:18:41.676Z,19.60
2019-06-19T01:19:46.702Z,19.80
2019-06-19T01:20:51.263Z,19.90
2019-06-19T01:21:56.201Z,19.80
2019-06-19T01:23:02.061Z,19.90
2019-06-19T01:24:07.210Z,20.00
2019-06-19T01:25:11.629Z,20.20
2019-06-19T01:26:16.613Z,20.10
2019-06-19T01:27:21.012Z,20.10
2019-06-19T01:28:26.084Z,20.00
2019-06-19T01:29:31.515Z,20.10
2019-06-19T01:30:36.739Z,20.20
2019-06-19T01:31:41.565Z,20.20
2019-06-19T01:32:46.693Z,20.10
2019-06-19T01:33:51.120Z,20.20
2019-06-19T01:34:56.218Z,20.20
2019-06-19T01:36:01.297Z,20.20
2019-06-19T01:37:06.546Z,20.20
2019-06-19T01:38:11.426Z,20.30
2019-06-19T01:39:16.537Z,20.40
2019-06-19T01:40:21.162Z,20.40
2019-06-19T01:41:26.329Z,20.40
2019-06-19T01:42:30.829Z,20.40
2019-06-19T01:43:35.781Z,20.60
2019-06-19T01:44:40.942Z,20.70
2019-06-19T01:45:46.138Z,20.80
2019-06-19T01:46:51.300Z,20.90
2019-06-19T01:47:56.505Z,21.00
2019-06-19T01:49:01.059Z,21.10
2019-06-19T01:50:06.890Z,21.10
2019-06-19T01:51:12.016Z,20.90
2019-06-19T01:52:17.127Z,20.80
2019-06-19T01:53:56.609Z,20.70
2019-06-19T01:55:01.590Z,20.70
2019-06-19T01:56:05.977Z,20.80
2019-06-19T01:57:11.267Z,20.70
2019-06-19T01:58:15.677Z,20.60
2019-06-19T01:59:21.741Z,20.50
2019-06-19T02:00:32.882Z,20.40
2019-06-19T02:01:32.775Z,20.40
2019-06-19T02:02:37.216Z,20.20
2019-06-19T02:03:42.146Z,20.10
2019-06-19T02:04:46.563Z,20.00
2019-06-19T02:05:51.804Z,19.90
2019-06-19T02:06:56.168Z,19.90
2019-06-19T02:08:01.098Z,20.00
2019-06-19T02:09:07.472Z,20.00
2019-06-19T02:10:13.931Z,20.20
2019-06-19T02:11:21.023Z,20.30
2019-06-19T02:12:24.905Z,20.50
2019-06-19T02:13:30.694Z,20.50
2019-06-19T02:14:35.824Z,20.50
2019-06-19T02:15:41.831Z,20.50
2019-06-19T02:16:46.841Z,20.40
2019-06-19T02:17:51.618Z,20.60
2019-06-19T02:18:56.648Z,20.70
2019-06-19T02:20:01.095Z,20.70
2019-06-19T02:21:06.101Z,20.70
2019-06-19T02:22:11.130Z,20.70
2019-06-19T02:23:16.283Z,20.60
2019-06-19T02:24:20.839Z,20.40
2019-06-19T02:25:26.067Z,20.30
2019-06-19T02:26:31.522Z,20.10
2019-06-19T02:27:36.712Z,19.90
2019-06-19T02:28:41.120Z,19.80
2019-06-19T02:29:46.051Z,19.80
2019-06-19T02:31:03.586Z,19.80
2019-06-19T02:31:57.229Z,19.70
2019-06-19T02:33:02.017Z,19.60
2019-06-19T02:34:07.128Z,19.50
2019-06-19T02:35:12.474Z,19.40
2019-06-19T02:36:17.580Z,19.30
2019-06-19T02:37:22.540Z,19.20
2019-06-19T02:38:27.554Z,19.30
2019-06-19T02:39:31.933Z,19.30
2019-06-19T02:40:37.113Z,19.30
2019-06-19T02:41:41.642Z,19.30
2019-06-19T02:42:46.576Z,19.40
2019-06-19T02:43:51.371Z,19.60
2019-06-19T02:44:56.291Z,19.70
2019-06-19T02:46:01.019Z,19.80
2019-06-19T02:47:06.123Z,19.80
2019-06-19T02:48:10.775Z,20.00
2019-06-19T02:49:15.917Z,20.10
2019-06-19T02:50:20.397Z,20.20
2019-06-19T02:51:25.373Z,20.10
2019-06-19T02:52:30.288Z,20.20
2019-06-19T02:53:35.312Z,20.30
2019-06-19T02:54:39.789Z,20.40
2019-06-19T02:55:45.108Z,20.50
2019-06-19T02:56:49.581Z,20.40
2019-06-19T02:57:54.491Z,20.40
2019-06-19T02:58:58.830Z,20.40
2019-06-19T03:00:03.938Z,20.30
2019-06-19T03:01:11.526Z,20.40
2019-06-19T03:02:15.452Z,20.40
2019-06-19T03:03:19.870Z,20.30
2019-06-19T03:04:24.881Z,20.10
2019-06-19T03:05:29.428Z,20.10
2019-06-19T03:06:34.401Z,20.20
2019-06-19T03:07:39.316Z,20.20
2019-06-19T03:08:45.237Z,20.40
2019-06-19T03:09:49.737Z,20.50
2019-06-19T03:10:54.949Z,20.70
2019-06-19T03:11:59.280Z,20.70
2019-06-19T03:13:04.289Z,20.80
2019-06-19T03:14:08.632Z,20.70
2019-06-19T03:15:14.135Z,20.60
2019-06-19T03:16:18.574Z,20.60
2019-06-19T03:17:23.529Z,20.70
2019-06-19T03:18:27.980Z,20.70
2019-06-19T03:19:32.913Z,20.60
2019-06-19T03:20:37.485Z,20.70
2019-06-19T03:21:42.794Z,20.80
2019-06-19T03:22:47.100Z,20.80
2019-06-19T03:23:52.104Z,20.80
2019-06-19T03:24:56.448Z,20.90
2019-06-19T03:26:01.458Z,20.90
2019-06-19T03:27:05.837Z,20.90
2019-06-19T03:28:12.176Z,20.90
2019-06-19T03:29:16.601Z,20.90
2019-06-19T03:30:21.738Z,20.90
2019-06-19T03:31:35.161Z,20.90
2019-06-19T03:32:32.781Z,21.00
2019-06-19T03:33:37.143Z,21.00
2019-06-19T03:34:42.115Z,21.00
2019-06-19T03:35:46.466Z,21.00
2019-06-19T03:36:51.618Z,21.00
2019-06-19T03:37:56.057Z,20.90
2019-06-19T03:39:00.972Z,20.90
2019-06-19T03:40:05.856Z,20.90
2019-06-19T03:41:11.179Z,20.90
2019-06-19T03:42:15.690Z,20.90
2019-06-19T03:43:20.658Z,20.90
2019-06-19T03:44:25.197Z,20.90
2019-06-19T03:45:30.125Z,20.90
2019-06-19T03:46:34.505Z,20.90
2019-06-19T03:47:39.437Z,21.00
2019-06-19T03:48:43.744Z,21.00
2019-06-19T03:49:48.744Z,20.90
2019-06-19T03:50:54.744Z,20.90
2019-06-19T03:51:59.683Z,20.90
2019-06-19T03:53:04.038Z,20.80
2019-06-19T03:54:09.046Z,20.70
2019-06-19T03:55:18.888Z,20.50
2019-06-19T03:56:23.833Z,20.60
2019-06-19T03:57:28.234Z,20.60
2019-06-19T03:58:33.339Z,20.70
2019-06-19T03:59:37.820Z,21.00
2019-06-19T04:00:42.866Z,21.40
2019-06-19T04:01:49.562Z,22.00
2019-06-19T04:02:53.969Z,22.40
2019-06-19T04:03:58.309Z,22.70
2019-06-19T04:05:03.280Z,22.90
2019-06-19T04:06:07.683Z,23.10
2019-06-19T04:07:13.113Z,23.40
2019-06-19T04:08:17.705Z,23.90
2019-06-19T04:09:22.613Z,24.50
2019-06-19T04:10:27.007Z,25.10
2019-06-19T04:11:32.057Z,25.60
2019-06-19T04:12:36.675Z,26.00
2019-06-19T04:13:41.650Z,26.40
2019-06-19T04:14:46.003Z,26.30
2019-06-19T04:15:50.985Z,26.10
2019-06-19T04:16:55.526Z,26.00
2019-06-19T04:18:00.535Z,26.20
2019-06-19T04:19:04.925Z,26.50
2019-06-19T04:20:10.418Z,26.70
2019-06-19T04:21:14.981Z,26.70
2019-06-19T04:22:19.990Z,26.30
2019-06-19T04:23:24.462Z,25.90
2019-06-19T04:24:29.449Z,25.50
2019-06-19T04:25:33.892Z,25.20
2019-06-19T04:26:38.843Z,25.10
2019-06-19T04:27:43.704Z,25.00
2019-06-19T04:28:53.476Z,24.80
2019-06-19T04:29:59.346Z,24.50
2019-06-19T04:31:04.350Z,24.20
2019-06-19T04:32:12.095Z,23.90
2019-06-19T04:33:17.479Z,23.90
2019-06-19T04:34:21.952Z,24.20
2019-06-19T04:35:27.380Z,24.90
2019-06-19T04:36:31.862Z,25.60
2019-06-19T04:37:36.805Z,26.30
2019-06-19T04:38:41.236Z,26.80
2019-06-19T04:39:46.292Z,27.40
2019-06-19T04:40:50.706Z,27.90
2019-06-19T04:41:55.980Z,28.30
2019-06-19T04:43:00.464Z,28.70
2019-06-19T04:44:05.596Z,28.90
2019-06-19T04:45:10.383Z,29.10
2019-06-19T04:46:15.536Z,29.30
2019-06-19T04:47:19.894Z,29.60
2019-06-19T04:48:24.868Z,29.80
2019-06-19T04:49:29.227Z,30.00
2019-06-19T04:50:35.962Z,30.10
2019-06-19T04:51:40.324Z,30.40
2019-06-19T04:52:46.945Z,30.50
2019-06-19T04:53:51.471Z,30.50
2019-06-19T04:54:56.407Z,30.50
2019-06-19T04:56:01.126Z,30.70
2019-06-19T04:57:06.236Z,31.30
2019-06-19T04:58:11.267Z,32.00
2019-06-19T04:59:16.631Z,32.60
2019-06-19T05:00:21.085Z,33.00
2019-06-19T05:01:26.984Z,33.50
2019-06-19T05:02:31.421Z,33.80
2019-06-19T05:03:36.533Z,34.00
2019-06-19T05:04:41.000Z,34.30
2019-06-19T05:05:46.195Z,34.50
2019-06-19T05:06:52.838Z,34.70
2019-06-19T05:08:08.317Z,35.00
2019-06-19T05:09:13.111Z,35.20
2019-06-19T05:10:21.346Z,35.50
2019-06-19T05:11:54.575Z,35.70
2019-06-19T05:13:26.405Z,35.90
2019-06-19T05:14:41.885Z,36.10
2019-06-19T05:15:46.897Z,36.10
2019-06-19T05:16:51.277Z,36.40
2019-06-19T05:17:56.569Z,36.60
2019-06-19T05:19:00.997Z,36.60
2019-06-19T05:20:06.596Z,36.70
2019-06-19T05:21:11.398Z,36.90
2019-06-19T05:22:16.535Z,36.90
2019-06-19T05:23:40.453Z,36.80
2019-06-19T05:24:45.466Z,36.70
2019-06-19T05:25:49.836Z,36.60
2019-06-19T05:26:54.774Z,36.60
2019-06-19T05:27:59.181Z,36.40
2019-06-19T05:29:04.150Z,36.60
2019-06-19T05:30:08.662Z,36.50
2019-06-19T05:31:14.087Z,36.50
2019-06-19T05:32:18.478Z,36.60
2019-06-19T05:33:23.422Z,36.80
2019-06-19T05:34:28.076Z,36.80
2019-06-19T05:35:33.000Z,36.90
2019-06-19T05:36:37.330Z,36.70
2019-06-19T05:37:42.367Z,36.80
2019-06-19T05:38:46.689Z,37.00
2019-06-19T05:39:51.719Z,37.10
2019-06-19T05:40:58.116Z,37.10
2019-06-19T05:42:03.096Z,37.20
2019-06-19T05:43:07.497Z,37.40
2019-06-19T05:44:15.750Z,37.60
2019-06-19T05:45:20.194Z,37.70
2019-06-19T05:46:25.297Z,37.70
2019-06-19T05:47:29.812Z,37.80
2019-06-19T05:48:34.740Z,37.70
2019-06-19T05:49:39.086Z,37.60
2019-06-19T05:50:44.355Z,38.00
2019-06-19T05:51:49.143Z,38.20
2019-06-19T05:52:54.144Z,38.00
2019-06-19T05:53:58.740Z,38.20
2019-06-19T05:55:03.899Z,38.60
2019-06-19T05:56:08.365Z,38.60
2019-06-19T05:57:13.939Z,38.90
2019-06-19T05:58:18.282Z,38.80
2019-06-19T05:59:23.321Z,39.00
2019-06-19T06:00:30.812Z,39.10
2019-06-19T06:01:35.764Z,39.30
2019-06-19T06:02:51.719Z,39.50
2019-06-19T06:03:49.359Z,39.70
2019-06-19T06:04:53.767Z,40.00
2019-06-19T06:05:59.063Z,40.00
2019-06-19T06:07:03.431Z,40.00
2019-06-19T06:08:08.445Z,40.10
2019-06-19T06:09:17.197Z,40.30
2019-06-19T06:10:22.300Z,40.30
2019-06-19T06:11:26.776Z,40.50
2019-06-19T06:12:31.801Z,40.80
2019-06-19T06:13:36.222Z,40.60
2019-06-19T06:14:41.255Z,40.60
2019-06-19T06:15:45.721Z,40.80
2019-06-19T06:16:50.734Z,41.00
2019-06-19T06:17:55.173Z,41.10
2019-06-19T06:19:00.284Z,40.90
2019-06-19T06:20:18.125Z,40.80
2019-06-19T06:21:53.454Z,40.70
2019-06-19T06:22:59.606Z,41.00
2019-06-19T06:24:04.672Z,41.10
2019-06-19T06:25:09.234Z,41.30
2019-06-19T06:26:15.544Z,41.20
2019-06-19T06:27:20.007Z,41.40
2019-06-19T06:28:25.086Z,41.50
2019-06-19T06:29:29.540Z,41.40
2019-06-19T06:30:34.740Z,41.40
2019-06-19T06:31:39.281Z,41.40
2019-06-19T06:32:44.385Z,41.40
2019-06-19T06:33:48.736Z,41.00
2019-06-19T06:34:53.843Z,41.10
2019-06-19T06:35:58.467Z,41.10
2019-06-19T06:37:03.531Z,41.00
2019-06-19T06:38:07.976Z,40.90
2019-06-19T06:39:14.674Z,41.00
2019-06-19T06:40:19.220Z,41.00
2019-06-19T06:41:24.162Z,40.90
2019-06-19T06:42:28.632Z,41.10
2019-06-19T06:43:33.714Z,41.20
2019-06-19T06:44:38.166Z,41.10
2019-06-19T06:45:46.135Z,41.20
2019-06-19T06:46:50.486Z,41.30
2019-06-19T06:47:55.532Z,41.30
2019-06-19T06:49:00.232Z,41.30
2019-06-19T06:50:05.346Z,41.40
2019-06-19T06:51:11.972Z,41.40
2019-06-19T06:52:17.976Z,40.30
2019-06-19T06:53:22.466Z,40.10
2019-06-19T06:54:27.472Z,39.90
2019-06-19T06:55:32.004Z,39.50
2019-06-19T06:56:37.043Z,39.80
2019-06-19T06:57:41.612Z,39.70
2019-06-19T06:58:46.737Z,39.70
2019-06-19T06:59:51.177Z,39.60
2019-06-19T07:01:00.199Z,39.30
2019-06-19T07:02:04.564Z,39.40
2019-06-19T07:03:24.034Z,39.50
2019-06-19T07:04:17.223Z,39.70
2019-06-19T07:05:22.187Z,40.20
2019-06-19T07:06:26.733Z,40.50
2019-06-19T07:07:31.713Z,40.50
2019-06-19T07:08:36.213Z,41.00
2019-06-19T07:09:41.252Z,41.00
2019-06-19T07:10:45.641Z,40.60
2019-06-19T07:11:50.781Z,40.80
2019-06-19T07:12:55.259Z,40.70
2019-06-19T07:14:00.519Z,41.30
2019-06-19T07:15:05.086Z,41.30
2019-06-19T07:16:10.154Z,41.50
2019-06-19T07:17:14.715Z,41.90
2019-06-19T07:18:19.769Z,41.70
2019-06-19T07:19:24.225Z,41.60
2019-06-19T07:20:29.224Z,41.70
2019-06-19T07:21:33.628Z,41.60
2019-06-19T07:22:38.781Z,41.70
2019-06-19T07:23:43.127Z,41.80
2019-06-19T07:24:48.184Z,41.90
2019-06-19T07:25:52.514Z,41.80
2019-06-19T07:26:57.464Z,41.70
2019-06-19T07:28:01.902Z,41.40
2019-06-19T07:29:06.852Z,41.50
2019-06-19T07:30:13.254Z,41.40
2019-06-19T07:31:18.407Z,41.10
2019-06-19T07:32:22.832Z,41.00
2019-06-19T07:33:40.463Z,41.00
2019-06-19T07:34:33.829Z,41.10
2019-06-19T07:35:38.948Z,41.40
2019-06-19T07:36:43.309Z,41.50
2019-06-19T07:37:48.420Z,41.80
2019-06-19T07:38:52.875Z,41.50
2019-06-19T07:39:57.941Z,41.50
2019-06-19T07:41:02.442Z,41.60
2019-06-19T07:42:07.352Z,41.50
2019-06-19T07:43:12.193Z,41.80
2019-06-19T07:44:17.194Z,42.00
2019-06-19T07:45:21.644Z,41.90
2019-06-19T07:46:26.605Z,41.40
2019-06-19T07:47:30.983Z,40.30
2019-06-19T07:48:36.033Z,40.40
2019-06-19T07:49:40.567Z,40.60
2019-06-19T07:50:45.597Z,40.60
2019-06-19T07:51:52.431Z,40.20
2019-06-19T07:52:57.447Z,40.30
2019-06-19T07:54:02.021Z,40.80
2019-06-19T07:55:07.339Z,41.20
2019-06-19T07:56:12.027Z,41.60
2019-06-19T07:57:17.174Z,41.90
2019-06-19T07:58:21.585Z,42.00
2019-06-19T07:59:26.616Z,42.20
2019-06-19T08:00:30.978Z,42.50
2019-06-19T08:01:35.944Z,42.50
2019-06-19T08:02:40.412Z,42.20
2019-06-19T08:03:57.567Z,41.90
2019-06-19T08:04:51.582Z,41.80
2019-06-19T08:05:56.613Z,41.60
2019-06-19T08:07:01.045Z,41.50
2019-06-19T08:08:07.193Z,41.80
2019-06-19T08:09:12.272Z,42.00
2019-06-19T08:10:17.675Z,42.10
2019-06-19T08:11:22.196Z,42.20
2019-06-19T08:12:27.171Z,41.90
2019-06-19T08:13:31.526Z,41.60
2019-06-19T08:14:36.571Z,41.20
2019-06-19T08:15:41.120Z,40.80
2019-06-19T08:16:46.099Z,40.70
2019-06-19T08:17:50.610Z,40.20
2019-06-19T08:18:55.553Z,40.40
2019-06-19T08:20:00.093Z,40.70
2019-06-19T08:21:05.185Z,41.00
2019-06-19T08:22:10.031Z,41.10
2019-06-19T08:23:15.358Z,41.50
2019-06-19T08:24:19.811Z,42.00
2019-06-19T08:25:25.160Z,42.30
2019-06-19T08:26:29.570Z,42.20
2019-06-19T08:27:34.494Z,42.10
2019-06-19T08:28:38.968Z,42.00
2019-06-19T08:29:44.092Z,42.00
2019-06-19T08:30:48.518Z,41.80
2019-06-19T08:31:53.461Z,42.00
2019-06-19T08:32:57.842Z,42.30
2019-06-19T08:34:13.893Z,42.40
2019-06-19T08:35:10.758Z,42.60
2019-06-19T08:36:16.067Z,42.70
2019-06-19T08:37:20.490Z,42.80
2019-06-19T08:38:25.474Z,42.90
2019-06-19T08:39:30.129Z,42.90
2019-06-19T08:40:35.725Z,42.70
2019-06-19T08:41:40.320Z,42.70
2019-06-19T08:42:48.993Z,42.50
2019-06-19T08:43:51.482Z,42.70
2019-06-19T08:44:56.469Z,42.80
2019-06-19T08:46:01.174Z,43.00
2019-06-19T08:47:06.172Z,43.00
2019-06-19T08:48:13.550Z,42.50
2019-06-19T08:49:18.737Z,42.20
2019-06-19T08:50:23.278Z,42.10
2019-06-19T08:51:28.388Z,42.00
2019-06-19T08:52:32.848Z,42.10
2019-06-19T08:53:37.876Z,41.80
2019-06-19T08:54:42.430Z,41.90
2019-06-19T08:55:47.420Z,41.60
2019-06-19T08:56:52.130Z,41.10
2019-06-19T08:57:57.260Z,40.50
2019-06-19T08:59:01.636Z,40.50
2019-06-19T09:00:07.348Z,40.60
2019-06-19T09:01:13.322Z,40.90
2019-06-19T09:02:18.467Z,41.00
2019-06-19T09:03:22.886Z,40.90
2019-06-19T09:04:34.561Z,41.10
2019-06-19T09:05:33.937Z,41.20
2019-06-19T09:06:38.987Z,41.30
2019-06-19T09:07:43.479Z,41.60
2019-06-19T09:08:48.581Z,41.60
2019-06-19T09:10:01.858Z,41.40
2019-06-19T09:11:17.220Z,41.40
2019-06-19T09:12:21.753Z,41.00
2019-06-19T09:13:35.612Z,40.90
2019-06-19T09:14:40.027Z,40.90
2019-06-19T09:15:44.980Z,40.90
2019-06-19T09:16:49.555Z,40.80
2019-06-19T09:17:54.688Z,40.70
2019-06-19T09:18:59.142Z,40.90
2019-06-19T09:20:04.571Z,41.00
2019-06-19T09:21:09.238Z,41.20
2019-06-19T09:22:14.901Z,41.40
2019-06-19T09:23:19.463Z,41.30
2019-06-19T09:24:24.396Z,41.60
2019-06-19T09:25:28.898Z,41.40
2019-06-19T09:26:33.910Z,41.10
2019-06-19T09:27:38.421Z,41.40
2019-06-19T09:28:43.490Z,41.20
2019-06-19T09:29:48.115Z,41.30
2019-06-19T09:30:53.153Z,41.40
2019-06-19T09:31:57.645Z,41.00
2019-06-19T09:33:02.675Z,40.50
2019-06-19T09:34:07.086Z,40.40
2019-06-19T09:35:12.563Z,39.50
2019-06-19T09:36:17.039Z,38.90
2019-06-19T09:37:22.121Z,38.40
2019-06-19T09:38:26.639Z,38.10
2019-06-19T09:39:31.713Z,37.60
2019-06-19T09:40:36.134Z,37.40
2019-06-19T09:41:41.169Z,37.10
2019-06-19T09:42:45.826Z,36.80
2019-06-19T09:43:50.942Z,36.30
2019-06-19T09:44:55.310Z,36.40
2019-06-19T09:46:00.373Z,36.60
2019-06-19T09:47:05.054Z,36.90
2019-06-19T09:48:13.210Z,37.00
2019-06-19T09:49:17.716Z,37.10
2019-06-19T09:50:22.626Z,37.30
2019-06-19T09:51:27.111Z,37.50
2019-06-19T09:52:32.245Z,37.60
2019-06-19T09:53:36.744Z,37.50
2019-06-19T09:54:41.789Z,37.50
2019-06-19T09:55:47.513Z,37.40
2019-06-19T09:56:52.474Z,37.50
2019-06-19T09:57:56.849Z,37.50
2019-06-19T09:59:01.794Z,37.50
2019-06-19T10:00:07.288Z,37.50
2019-06-19T10:01:12.599Z,37.80
2019-06-19T10:02:17.073Z,38.20
2019-06-19T10:03:33.598Z,38.70
2019-06-19T10:04:28.262Z,38.70
2019-06-19T10:05:33.313Z,38.80
2019-06-19T10:06:37.955Z,38.90
2019-06-19T10:07:42.939Z,38.70
2019-06-19T10:08:47.449Z,38.40
2019-06-19T10:09:52.450Z,37.90
2019-06-19T10:10:56.821Z,37.50
2019-06-19T10:12:01.875Z,37.30
2019-06-19T10:13:06.273Z,37.00
2019-06-19T10:14:11.544Z,36.80
2019-06-19T10:15:16.090Z,36.70
2019-06-19T10:16:21.158Z,36.60
2019-06-19T10:17:25.555Z,36.50
2019-06-19T10:18:30.531Z,36.60
2019-06-19T10:19:34.986Z,36.50
2019-06-19T10:20:40.039Z,36.60
2019-06-19T10:21:44.458Z,36.60
2019-06-19T10:22:49.662Z,36.50
2019-06-19T10:23:54.226Z,36.50
2019-06-19T10:24:59.262Z,36.40
2019-06-19T10:26:03.869Z,36.40
2019-06-19T10:27:08.929Z,36.70
2019-06-19T10:28:13.765Z,37.10
2019-06-19T10:29:18.838Z,37.60
2019-06-19T10:30:38.097Z,37.90
2019-06-19T10:31:43.187Z,38.00
2019-06-19T10:32:47.854Z,38.40
2019-06-19T10:33:53.039Z,38.50
2019-06-19T10:34:57.522Z,38.60
2019-06-19T10:36:02.621Z,38.80
2019-06-19T10:37:06.982Z,38.40
2019-06-19T10:38:14.395Z,38.10
2019-06-19T10:39:18.973Z,37.80
2019-06-19T10:40:24.080Z,37.40
2019-06-19T10:41:28.423Z,37.00
2019-06-19T10:42:33.350Z,36.70
2019-06-19T10:43:37.944Z,36.30
2019-06-19T10:44:42.970Z,36.00
2019-06-19T10:45:47.482Z,35.80
2019-06-19T10:46:53.203Z,35.70
2019-06-19T10:47:57.579Z,35.60
2019-06-19T10:49:02.669Z,35.60
2019-06-19T10:50:07.939Z,35.70
2019-06-19T10:51:13.204Z,35.80
2019-06-19T10:52:17.761Z,36.00
2019-06-19T10:53:22.757Z,35.90
2019-06-19T10:54:27.128Z,35.90
2019-06-19T10:55:32.202Z,35.90
2019-06-19T10:56:36.633Z,36.10
2019-06-19T10:57:41.696Z,36.30
2019-06-19T10:58:46.101Z,36.30
2019-06-19T10:59:51.253Z,36.30
2019-06-19T11:00:55.640Z,36.30
2019-06-19T11:02:00.689Z,36.50
2019-06-19T11:03:09.154Z,36.50
2019-06-19T11:04:12.230Z,36.50
2019-06-19T11:05:16.797Z,36.40
2019-06-19T11:06:21.905Z,36.30
2019-06-19T11:07:26.309Z,36.20
2019-06-19T11:08:31.349Z,36.20
2019-06-19T11:09:35.725Z,36.30
2019-06-19T11:10:40.655Z,36.40
2019-06-19T11:11:45.118Z,36.40
2019-06-19T11:12:50.219Z,36.30
2019-06-19T11:13:54.657Z,36.20
2019-06-19T11:15:00.397Z,36.20
2019-06-19T11:16:05.173Z,36.10
2019-06-19T11:17:12.879Z,36.20
2019-06-19T11:18:17.656Z,36.20
2019-06-19T11:19:22.635Z,36.10
2019-06-19T11:20:27.093Z,36.10
2019-06-19T11:21:32.206Z,36.40
2019-06-19T11:22:36.946Z,36.60
2019-06-19T11:23:42.061Z,36.70
2019-06-19T11:24:46.493Z,36.70
2019-06-19T11:25:51.810Z,36.80
2019-06-19T11:26:56.323Z,36.90
2019-06-19T11:28:01.431Z,37.00
2019-06-19T11:29:06.336Z,36.80
2019-06-19T11:30:12.090Z,36.40
2019-06-19T11:31:16.654Z,36.10
2019-06-19T11:32:21.680Z,35.70
2019-06-19T11:33:26.275Z,35.50
2019-06-19T11:34:33.390Z,35.40
2019-06-19T11:35:37.813Z,35.40
2019-06-19T11:36:42.829Z,35.30
2019-06-19T11:37:47.184Z,35.20
2019-06-19T11:38:52.128Z,35.20
2019-06-19T11:39:56.594Z,35.30
2019-06-19T11:41:01.592Z,35.30
2019-06-19T11:42:06.293Z,35.10
2019-06-19T11:43:11.474Z,35.10
2019-06-19T11:44:16.082Z,35.10
2019-06-19T11:45:21.330Z,35.10
2019-06-19T11:46:25.697Z,35.30
2019-06-19T11:47:30.784Z,35.50
2019-06-19T11:48:35.262Z,35.50
2019-06-19T11:49:40.241Z,35.40
2019-06-19T11:50:44.670Z,35.30
2019-06-19T11:51:49.832Z,35.20
2019-06-19T11:52:54.200Z,35.20
2019-06-19T11:53:59.270Z,35.10
2019-06-19T11:55:04.018Z,35.00
2019-06-19T11:56:11.783Z,34.70
2019-06-19T11:57:15.634Z,34.50
2019-06-19T11:58:20.571Z,34.40
2019-06-19T11:59:25.012Z,34.40
2019-06-19T12:00:32.991Z,34.60
2019-06-19T12:01:37.447Z,34.60
2019-06-19T12:02:42.660Z,34.50
2019-06-19T12:03:47.128Z,34.20
2019-06-19T12:04:52.181Z,33.90
2019-06-19T12:06:12.261Z,33.70
2019-06-19T12:07:03.213Z,33.50
2019-06-19T12:08:07.805Z,33.50
2019-06-19T12:09:13.233Z,33.30
2019-06-19T12:10:17.946Z,33.20
2019-06-19T12:11:23.086Z,33.10
2019-06-19T12:12:27.602Z,32.90
2019-06-19T12:13:32.671Z,32.70
2019-06-19T12:14:37.150Z,32.50
2019-06-19T12:15:42.208Z,32.30
2019-06-19T12:16:46.567Z,32.20
2019-06-19T12:17:51.706Z,31.90
2019-06-19T12:18:56.249Z,31.70
2019-06-19T12:20:01.263Z,31.50
2019-06-19T12:21:05.644Z,31.20
2019-06-19T12:22:10.693Z,31.00
2019-06-19T12:23:15.383Z,31.00
2019-06-19T12:24:20.461Z,31.00
2019-06-19T12:25:24.933Z,31.10
2019-06-19T12:26:32.977Z,31.10
2019-06-19T12:27:37.686Z,31.10
2019-06-19T12:28:43.079Z,31.10
2019-06-19T12:29:47.525Z,31.00
2019-06-19T12:30:54.353Z,31.00
2019-06-19T12:31:58.848Z,31.00
2019-06-19T12:33:03.812Z,30.90
2019-06-19T12:34:08.579Z,31.00
2019-06-19T12:35:14.401Z,31.10
2019-06-19T12:36:29.413Z,31.30
2019-06-19T12:37:25.739Z,31.30
2019-06-19T12:38:30.247Z,31.50
2019-06-19T12:39:35.355Z,31.60
2019-06-19T12:40:39.875Z,31.80
2019-06-19T12:41:45.046Z,31.90
2019-06-19T12:42:49.524Z,31.90
2019-06-19T12:43:56.988Z,31.90
2019-06-19T12:45:01.411Z,31.90
2019-06-19T12:46:06.594Z,32.00
2019-06-19T12:47:11.152Z,32.20
2019-06-19T12:48:16.571Z,32.60
2019-06-19T12:49:21.060Z,32.80
2019-06-19T12:50:28.161Z,32.80
2019-06-19T12:51:32.692Z,32.80
2019-06-19T12:52:38.426Z,33.10
2019-06-19T12:53:43.166Z,33.40
2019-06-19T12:55:03.581Z,33.70
2019-06-19T12:55:59.024Z,33.90
2019-06-19T12:57:04.176Z,34.00
2019-06-19T12:58:10.306Z,33.80
2019-06-19T12:59:15.394Z,33.70
2019-06-19T13:00:21.471Z,33.50
2019-06-19T13:01:26.690Z,33.40
2019-06-19T13:02:31.047Z,33.40
2019-06-19T13:03:36.196Z,33.30
2019-06-19T13:04:40.629Z,33.20
2019-06-19T13:05:45.852Z,33.10
2019-06-19T13:06:50.373Z,33.10
2019-06-19T13:07:55.670Z,33.00
2019-06-19T13:09:00.113Z,33.00
2019-06-19T13:10:05.597Z,33.00
2019-06-19T13:11:10.608Z,33.10
2019-06-19T13:12:15.818Z,33.00
2019-06-19T13:13:20.291Z,33.10
2019-06-19T13:14:25.491Z,33.10
2019-06-19T13:15:30.049Z,33.10
2019-06-19T13:16:36.238Z,33.00
2019-06-19T13:17:40.683Z,33.00
2019-06-19T13:18:45.742Z,33.10
2019-06-19T13:19:50.199Z,33.10
2019-06-19T13:20:55.346Z,33.20
2019-06-19T13:21:59.836Z,33.10
2019-06-19T13:23:04.798Z,33.10
2019-06-19T13:24:09.657Z,32.90
2019-06-19T13:25:16.511Z,32.60
2019-06-19T13:26:21.055Z,32.40
2019-06-19T13:27:26.174Z,32.30
2019-06-19T13:28:31.396Z,32.10
2019-06-19T13:29:36.575Z,31.90
2019-06-19T13:30:41.296Z,31.80
2019-06-19T13:32:03.318Z,31.70
2019-06-19T13:33:14.127Z,31.70
2019-06-19T13:34:20.909Z,31.70
2019-06-19T13:35:35.611Z,31.60
2019-06-19T13:36:36.609Z,31.50
2019-06-19T13:37:41.108Z,31.20
2019-06-19T13:38:46.164Z,31.00
2019-06-19T13:40:14.847Z,30.80
2019-06-19T13:41:51.670Z,30.70
2019-06-19T13:42:59.258Z,30.50
2019-06-19T13:44:11.820Z,30.40
2019-06-19T13:45:27.141Z,30.30
2019-06-19T13:46:41.378Z,30.10
2019-06-19T13:47:55.909Z,30.10
2019-06-19T13:49:27.995Z,30.10
2019-06-19T13:50:41.538Z,30.00
2019-06-19T13:51:53.860Z,30.00
2019-06-19T13:53:22.659Z,30.00
2019-06-19T13:54:32.018Z,30.10
2019-06-19T13:56:02.995Z,30.20
2019-06-19T13:57:09.392Z,30.10
2019-06-19T13:58:16.689Z,30.10
2019-06-19T13:59:24.270Z,30.00
2019-06-19T14:00:34.137Z,30.00
2019-06-19T14:01:44.254Z,30.00
2019-06-19T14:03:00.024Z,30.00
2019-06-19T14:04:09.132Z,29.90
2019-06-19T14:05:27.262Z,29.80
2019-06-19T14:07:20.063Z,29.70
2019-06-19T14:08:48.483Z,29.80